Time;durP1;ratioP1;P1;durP2;ratioP2;P2;SDS_P1;SDS_P2;PMS_P1;PMS_P2;Temp;Humidity;BMP_temperature;BMP_pressure;BME280_temperature;BME280_humidity;BME280_pressure;Samples;Min_cycle;Max_cycle;Signal;HPM_P1;HPM_P2
2024/01/08 00:00:51;;;;;;;5.63;1.90;;;;;;;19.41;54.38;100027.59;5050737;28;20052;-58
2024/01/08 00:03:18;;;;;;;5.38;1.85;;;;;;;19.42;54.07;100029.28;5048935;28;20380;-58
2024/01/08 00:05:46;;;;;;;6.30;2.30;;;;;;;19.40;54.24;100039.31;5048665;28;20056;-58
2024/01/08 00:08:14;;;;;;;4.25;1.77;;;;;;;19.40;54.10;100044.66;5039249;28;20207;-58
2024/01/08 00:10:42;;;;;;;2.88;1.48;;;;;;;19.40;54.11;100052.72;5049090;28;20403;-59
2024/01/08 00:13:09;;;;;;;2.72;1.40;;;;;;;19.39;53.96;100051.88;5050660;28;20419;-57
2024/01/08 00:15:37;;;;;;;4.00;1.65;;;;;;;19.38;53.95;100044.00;5023421;28;20046;-58
2024/01/08 00:18:04;;;;;;;3.67;1.40;;;;;;;19.37;53.88;100053.06;5048386;28;20503;-57
2024/01/08 00:20:32;;;;;;;3.95;2.15;;;;;;;19.37;53.80;100050.38;5051249;28;20403;-57
2024/01/08 00:23:00;;;;;;;2.85;1.40;;;;;;;19.37;53.81;100048.53;5050846;28;20056;-57
2024/01/08 00:25:27;;;;;;;3.75;1.42;;;;;;;19.36;53.57;100049.50;5048531;28;20052;-57
2024/01/08 00:27:56;;;;;;;4.13;1.67;;;;;;;19.35;53.75;100047.81;5049350;28;20053;-57
2024/01/08 00:30:24;;;;;;;3.75;1.70;;;;;;;19.34;53.63;100046.13;5051076;28;20460;-58
2024/01/08 00:32:51;;;;;;;3.30;1.17;;;;;;;19.35;53.54;100050.50;5039227;28;20420;-58
2024/01/08 00:35:19;;;;;;;2.55;1.20;;;;;;;19.33;53.48;100051.66;5049691;28;20049;-58
2024/01/08 00:37:47;;;;;;;3.55;1.25;;;;;;;19.33;53.55;100059.72;5047030;28;20060;-58
2024/01/08 00:40:14;;;;;;;4.38;1.50;;;;;;;19.33;53.63;100054.34;5043888;28;20055;-58
2024/01/08 00:42:42;;;;;;;2.65;1.20;;;;;;;19.32;53.42;100066.88;5050130;28;20390;-58
2024/01/08 00:45:09;;;;;;;1.98;1.02;;;;;;;19.31;53.29;100054.47;5048254;28;20064;-58
2024/01/08 00:47:37;;;;;;;3.22;1.75;;;;;;;19.31;53.29;100064.38;5049404;28;20044;-58
2024/01/08 00:50:05;;;;;;;2.33;1.20;;;;;;;19.31;53.34;100059.84;5050334;28;20408;-58
2024/01/08 00:52:32;;;;;;;1.90;1.10;;;;;;;19.32;53.04;100066.06;5050425;28;20045;-57
2024/01/08 00:55:04;;;;;;;3.70;1.33;;;;;;;19.29;53.12;100067.22;5046019;28;20491;-57
2024/01/08 00:57:33;;;;;;;2.80;1.40;;;;;;;19.30;53.27;100070.75;5046149;28;20506;-58
2024/01/08 01:00:02;;;;;;;2.90;1.17;;;;;;;19.29;53.01;100061.00;5044355;28;20037;-58
2024/01/08 01:02:30;;;;;;;2.38;1.10;;;;;;;19.30;52.92;100070.75;5037557;28;20399;-58
2024/01/08 01:04:58;;;;;;;2.22;1.00;;;;;;;19.28;53.21;100076.22;5044005;28;20049;-58
2024/01/08 01:07:29;;;;;;;2.25;1.40;;;;;;;19.27;53.04;100078.06;5045002;28;20060;-58
2024/01/08 01:09:57;;;;;;;3.85;1.55;;;;;;;19.27;52.97;100078.06;5038607;28;20045;-57
2024/01/08 01:12:24;;;;;;;2.05;0.75;;;;;;;19.29;52.92;100093.22;5049051;28;20060;-58
2024/01/08 01:14:52;;;;;;;2.33;1.20;;;;;;;19.26;53.00;100086.28;5046623;28;20045;-58
2024/01/08 01:17:19;;;;;;;2.65;1.63;;;;;;;19.25;53.15;100089.97;5025099;28;20100;-58
2024/01/08 01:19:47;;;;;;;2.40;1.20;;;;;;;19.25;53.05;100081.94;5045677;28;20048;-58
2024/01/08 01:22:14;;;;;;;2.67;1.17;;;;;;;19.25;52.88;100088.13;5050190;28;20048;-58
2024/01/08 01:24:42;;;;;;;3.10;1.30;;;;;;;19.25;52.95;100090.81;5046462;28;20050;-58
2024/01/08 01:27:09;;;;;;;3.25;1.13;;;;;;;19.24;52.91;100091.81;5050186;28;20055;-58
2024/01/08 01:29:37;;;;;;;2.92;1.25;;;;;;;19.24;52.75;100086.47;5050136;28;20052;-58
2024/01/08 01:32:05;;;;;;;2.58;1.48;;;;;;;19.24;52.85;100091.81;5048563;28;20049;-58
2024/01/08 01:34:34;;;;;;;2.72;1.10;;;;;;;19.25;52.95;100087.28;5046617;28;20395;-58
2024/01/08 01:37:02;;;;;;;2.97;1.20;;;;;;;19.25;53.00;100092.66;5049683;28;20052;-58
2024/01/08 01:39:30;;;;;;;2.72;1.05;;;;;;;19.24;52.75;100102.56;5049889;28;20056;-58
2024/01/08 01:41:58;;;;;;;2.30;1.52;;;;;;;19.24;52.75;100107.06;5048651;28;20215;-58
2024/01/08 01:44:25;;;;;;;2.45;1.15;;;;;;;19.23;52.73;100103.53;5046757;28;20507;-58
2024/01/08 01:46:54;;;;;;;2.65;1.00;;;;;;;19.22;52.54;100104.53;5049978;28;20411;-58
2024/01/08 01:49:23;;;;;;;2.60;1.25;;;;;;;19.23;52.60;100106.22;5047813;28;20067;-58
2024/01/08 01:51:51;;;;;;;2.70;1.30;;;;;;;19.24;52.69;100107.06;5047982;28;20398;-58
2024/01/08 01:54:21;;;;;;;3.15;1.08;;;;;;;19.23;52.55;100110.72;5046946;28;20391;-58
2024/01/08 01:57:00;;;;;;;2.25;1.35;;;;;;;19.23;52.47;100098.16;5049316;28;20063;-58
2024/01/08 01:59:28;;;;;;;1.92;1.05;;;;;;;19.22;52.53;100093.78;5037761;28;20053;-58
2024/01/08 02:01:57;;;;;;;2.30;1.00;;;;;;;19.23;52.37;100100.00;5048334;28;20056;-58
2024/01/08 02:04:28;;;;;;;2.88;1.45;;;;;;;19.22;52.47;100104.53;5028008;28;20356;-58
2024/01/08 02:06:59;;;;;;;2.40;1.20;;;;;;;19.22;52.35;100103.69;5049269;28;20048;-58
2024/01/08 02:09:27;;;;;;;2.08;1.17;;;;;;;19.22;52.32;100096.47;5046113;28;20403;-58
2024/01/08 02:11:54;;;;;;;1.98;1.05;;;;;;;19.21;52.44;100092.13;5048447;28;20413;-58
2024/01/08 02:14:22;;;;;;;2.45;1.10;;;;;;;19.21;52.32;100100.16;5048959;28;20491;-58
2024/01/08 02:16:50;;;;;;;2.30;1.20;;;;;;;19.21;52.57;100102.84;5034857;28;20052;-58
2024/01/08 02:19:17;;;;;;;2.80;1.20;;;;;;;19.20;52.59;100098.47;5015530;28;20058;-59
2024/01/08 02:21:46;;;;;;;1.90;0.88;;;;;;;19.21;52.48;100110.06;5024620;28;20055;-58
2024/01/08 02:24:14;;;;;;;3.55;1.30;;;;;;;19.21;52.42;100112.75;5019988;28;20045;-58
2024/01/08 02:26:42;;;;;;;2.03;1.00;;;;;;;19.21;52.52;100113.56;5020414;28;20069;-57
2024/01/08 02:29:09;;;;;;;2.80;1.10;;;;;;;19.20;52.42;100111.03;5020916;28;20062;-58
2024/01/08 02:31:37;;;;;;;2.20;1.08;;;;;;;19.20;52.27;100114.59;5024374;28;20041;-58
2024/01/08 02:34:04;;;;;;;2.10;0.93;;;;;;;19.20;52.40;100109.22;5019992;28;20060;-57
2024/01/08 02:36:32;;;;;;;2.53;1.23;;;;;;;19.20;52.48;100101.16;5020013;28;20054;-58
2024/01/08 02:39:00;;;;;;;1.85;1.00;;;;;;;19.20;52.52;100098.47;5032835;28;20053;-57
2024/01/08 02:41:27;;;;;;;2.00;1.13;;;;;;;19.19;52.59;100102.13;5024927;28;20053;-58
2024/01/08 02:43:55;;;;;;;2.33;1.05;;;;;;;19.19;52.51;100107.50;5030312;28;20054;-58
2024/01/08 02:46:23;;;;;;;2.30;1.23;;;;;;;19.19;52.46;100114.72;5029257;28;20068;-58
2024/01/08 02:48:50;;;;;;;1.85;0.82;;;;;;;19.19;52.44;100112.03;5024248;28;20050;-58
2024/01/08 02:51:18;;;;;;;1.80;0.70;;;;;;;19.19;52.57;100107.50;5023755;28;20410;-58
2024/01/08 02:53:46;;;;;;;2.60;0.80;;;;;;;19.19;52.43;100112.88;5019637;28;20411;-57
2024/01/08 02:56:20;;;;;;;2.60;1.05;;;;;;;19.19;52.63;100118.22;5019643;28;20408;-57
2024/01/08 02:58:48;;;;;;;2.08;0.82;;;;;;;19.18;52.44;100116.56;5024749;28;20535;-57
2024/01/08 03:01:16;;;;;;;1.60;0.88;;;;;;;19.18;52.41;100121.91;5024033;28;20041;-58
2024/01/08 03:03:44;;;;;;;2.03;0.90;;;;;;;19.18;52.51;100119.22;5034817;28;20052;-57
2024/01/08 03:06:11;;;;;;;2.15;1.02;;;;;;;19.19;52.64;100120.06;5036019;28;20046;-57
2024/01/08 03:08:39;;;;;;;2.20;0.80;;;;;;;19.18;52.59;100121.06;5037827;28;20377;-57
2024/01/08 03:11:07;;;;;;;1.60;0.82;;;;;;;19.17;52.57;100114.88;5034639;28;20943;-57
2024/01/08 03:13:35;;;;;;;1.85;0.88;;;;;;;19.18;52.63;100118.41;5019433;28;20389;-57
2024/01/08 03:16:03;;;;;;;2.40;1.20;;;;;;;19.18;52.64;100107.66;5019443;28;20097;-57
2024/01/08 03:18:30;;;;;;;1.80;0.80;;;;;;;19.18;52.56;100113.03;5019819;28;20042;-57
2024/01/08 03:20:59;;;;;;;1.52;0.63;;;;;;;19.17;52.72;100117.56;5020666;28;20050;-58
2024/01/08 03:23:27;;;;;;;1.70;0.90;;;;;;;19.18;52.45;100118.41;5023484;28;20073;-58
2024/01/08 03:25:55;;;;;;;1.60;0.90;;;;;;;19.18;52.43;100119.22;5023851;28;20065;-58
2024/01/08 03:28:22;;;;;;;2.50;1.00;;;;;;;19.17;52.49;100112.19;5028724;28;20065;-58
2024/01/08 03:30:50;;;;;;;1.90;0.90;;;;;;;19.17;52.54;100117.56;5024612;28;20389;-58
2024/01/08 03:33:18;;;;;;;2.40;0.98;;;;;;;19.17;52.52;100114.03;5023622;28;20425;-58
2024/01/08 03:35:45;;;;;;;2.25;1.20;;;;;;;19.16;52.56;100125.72;5023165;28;20065;-58
2024/01/08 03:38:13;;;;;;;1.80;1.10;;;;;;;19.16;52.47;100131.97;5028421;28;20492;-57
2024/01/08 03:40:40;;;;;;;2.13;0.77;;;;;;;19.16;52.50;100126.59;5024270;28;20054;-57
2024/01/08 03:43:08;;;;;;;2.05;0.80;;;;;;;19.16;52.49;100139.16;5023453;28;20042;-57
2024/01/08 03:45:35;;;;;;;1.55;0.75;;;;;;;19.16;52.65;100141.81;5023226;28;20404;-57
2024/01/08 03:48:03;;;;;;;1.45;0.80;;;;;;;19.16;52.68;100141.81;5028040;28;20038;-57
2024/01/08 03:50:30;;;;;;;2.50;1.15;;;;;;;19.16;52.80;100147.19;5024146;28;20052;-57
2024/01/08 03:52:58;;;;;;;1.50;0.80;;;;;;;19.15;52.55;100143.66;5023189;28;20046;-57
2024/01/08 03:55:25;;;;;;;2.05;0.95;;;;;;;19.16;52.65;100153.44;5022628;28;20053;-57
2024/01/08 03:57:53;;;;;;;1.40;0.80;;;;;;;19.16;52.65;100148.06;5028459;28;20052;-57
2024/01/08 04:00:21;;;;;;;1.85;0.85;;;;;;;19.15;52.65;100151.72;5023484;28;20050;-57
2024/01/08 04:02:48;;;;;;;1.83;1.00;;;;;;;19.16;52.64;100152.56;5022492;28;20049;-57
2024/01/08 04:05:16;;;;;;;1.98;0.82;;;;;;;19.16;52.57;100149.88;5022543;28;20041;-57
2024/01/08 04:07:44;;;;;;;1.40;0.70;;;;;;;19.16;52.40;100158.78;5028139;28;20057;-57
2024/01/08 04:10:12;;;;;;;2.35;1.17;;;;;;;19.15;52.70;100162.44;5022800;28;20057;-58
2024/01/08 04:12:40;;;;;;;1.98;1.00;;;;;;;19.15;52.53;100159.75;5022457;28;20049;-58
2024/01/08 04:15:07;;;;;;;1.75;0.85;;;;;;;19.15;52.69;100161.59;5022206;28;20068;-58
2024/01/08 04:17:35;;;;;;;1.70;0.80;;;;;;;19.16;52.61;100161.47;5028121;28;20064;-57
2024/01/08 04:20:04;;;;;;;1.40;0.70;;;;;;;19.14;52.53;100150.03;5018621;28;20037;-57
2024/01/08 04:22:31;;;;;;;1.35;0.68;;;;;;;19.15;52.54;100156.25;5022318;28;20051;-57
2024/01/08 04:24:59;;;;;;;1.85;0.80;;;;;;;19.14;52.47;100159.94;5022547;28;20485;-57
2024/01/08 04:27:26;;;;;;;1.48;0.68;;;;;;;19.14;52.74;100166.13;5028809;28;20044;-57
2024/01/08 04:29:54;;;;;;;1.83;0.95;;;;;;;19.15;52.48;100161.59;5017175;28;20084;-57
2024/01/08 04:32:21;;;;;;;1.35;0.70;;;;;;;19.14;52.46;100166.13;5022110;28;20046;-58
2024/01/08 04:34:51;;;;;;;1.60;0.80;;;;;;;19.14;52.38;100162.59;5022526;28;20470;-57
2024/01/08 04:37:19;;;;;;;3.20;1.15;;;;;;;19.14;52.53;100167.97;5029380;28;20052;-57
2024/01/08 04:39:47;;;;;;;2.20;0.80;;;;;;;19.13;52.48;100175.19;5034481;28;20056;-58
2024/01/08 04:42:14;;;;;;;1.17;0.63;;;;;;;19.13;52.31;100182.38;5026434;28;20041;-58
2024/01/08 04:44:42;;;;;;;1.48;0.80;;;;;;;19.13;52.38;100185.06;5026671;28;20057;-58
2024/01/08 04:47:09;;;;;;;1.13;0.60;;;;;;;19.13;52.40;100196.66;5027573;28;20377;-57
2024/01/08 04:49:37;;;;;;;2.95;0.95;;;;;;;19.13;52.26;100190.44;5022108;28;20053;-58
2024/01/08 04:52:05;;;;;;;1.60;0.65;;;;;;;19.13;52.50;100196.66;5021919;28;20511;-58
2024/01/08 04:54:32;;;;;;;2.65;0.98;;;;;;;19.12;52.12;100199.47;5021098;28;20557;-58
2024/01/08 04:57:00;;;;;;;1.55;0.77;;;;;;;19.12;52.12;100197.66;5029134;28;20398;-57
2024/01/08 04:59:27;;;;;;;2.05;0.73;;;;;;;19.12;52.25;100200.34;5022153;28;20489;-58
2024/01/08 05:01:55;;;;;;;2.33;0.80;;;;;;;19.12;52.30;100204.81;5022334;28;20053;-58
2024/01/08 05:04:22;;;;;;;2.40;0.85;;;;;;;19.12;52.36;100205.69;5021716;28;20045;-58
2024/01/08 05:06:50;;;;;;;1.83;0.93;;;;;;;19.11;51.98;100209.34;5028313;28;20048;-57
2024/01/08 05:09:17;;;;;;;1.75;0.80;;;;;;;19.12;51.96;100213.75;5022963;28;20057;-57
2024/01/08 05:11:45;;;;;;;1.95;0.90;;;;;;;19.12;52.14;100219.09;5016955;28;20042;-58
2024/01/08 05:14:14;;;;;;;1.27;0.73;;;;;;;19.11;52.09;100213.88;5021605;28;20117;-58
2024/01/08 05:16:41;;;;;;;1.90;0.93;;;;;;;19.11;52.19;100214.72;5029223;28;20067;-57
2024/01/08 05:19:09;;;;;;;1.92;0.90;;;;;;;19.11;51.98;100219.22;5033133;28;20045;-58
2024/01/08 05:21:36;;;;;;;1.55;0.68;;;;;;;19.10;52.06;100210.34;5019316;28;20053;-57
2024/01/08 05:24:05;;;;;;;2.00;0.93;;;;;;;19.10;51.95;100207.66;5021804;28;20049;-57
2024/01/08 05:26:32;;;;;;;2.72;1.00;;;;;;;19.09;52.30;100203.28;5023686;28;20045;-57
2024/01/08 05:29:00;;;;;;;1.33;0.60;;;;;;;19.09;52.10;100223.91;5020368;28;20060;-58
2024/01/08 05:31:30;;;;;;;2.40;0.93;;;;;;;19.09;52.25;100229.28;5022155;28;20137;-57
2024/01/08 05:33:58;;;;;;;1.60;0.93;;;;;;;19.09;52.10;100229.28;5022797;28;20408;-57
2024/01/08 05:36:26;;;;;;;1.30;0.70;;;;;;;19.08;52.12;100244.53;5039408;28;20053;-59
2024/01/08 05:38:59;;;;;;;2.17;1.00;;;;;;;19.08;51.99;100249.91;5022031;28;20050;-58
2024/01/08 05:41:26;;;;;;;1.55;0.70;;;;;;;19.08;52.13;100247.22;5022197;28;20065;-58
2024/01/08 05:43:54;;;;;;;1.40;0.77;;;;;;;19.07;52.11;100245.50;5023396;28;20050;-58
2024/01/08 05:46:21;;;;;;;2.63;0.63;;;;;;;19.07;52.17;100242.81;5026320;28;20057;-58
2024/01/08 05:48:49;;;;;;;1.80;0.93;;;;;;;19.07;52.14;100241.97;5022603;28;20050;-58
2024/01/08 05:51:17;;;;;;;2.35;0.70;;;;;;;19.07;52.28;100244.66;5021547;28;20050;-58
2024/01/08 05:53:45;;;;;;;1.23;0.65;;;;;;;19.06;52.07;100240.28;5024582;28;20057;-58
2024/01/08 05:56:12;;;;;;;1.60;0.77;;;;;;;19.07;52.39;100241.97;5025676;28;20404;-58
2024/01/08 05:58:40;;;;;;;2.13;0.93;;;;;;;19.06;52.14;100242.97;5021804;28;20060;-58
2024/01/08 06:01:07;;;;;;;2.85;0.80;;;;;;;19.07;52.31;100236.63;5021416;28;20408;-59
2024/01/08 06:03:35;;;;;;;1.55;0.65;;;;;;;19.06;52.11;100242.97;5023527;28;20374;-59
2024/01/08 06:06:03;;;;;;;2.30;0.82;;;;;;;19.07;52.21;100245.50;5025520;28;20041;-59
2024/01/08 06:08:31;;;;;;;1.42;0.65;;;;;;;19.07;52.24;100252.72;5021701;28;20061;-56
2024/01/08 06:10:59;;;;;;;1.65;0.77;;;;;;;19.07;52.21;100255.41;5019509;28;20493;-58
2024/01/08 06:13:30;;;;;;;2.13;0.98;;;;;;;19.07;52.23;100260.75;5025649;28;20042;-59
2024/01/08 06:15:58;;;;;;;2.08;1.00;;;;;;;19.05;52.14;100268.13;5023940;28;20056;-57
2024/01/08 06:18:27;;;;;;;1.52;0.68;;;;;;;19.04;52.16;100267.28;5021148;28;20061;-57
2024/01/08 06:20:54;;;;;;;1.83;0.93;;;;;;;19.04;52.02;100269.97;5020205;28;20038;-57
2024/01/08 06:23:22;;;;;;;1.90;0.80;;;;;;;19.03;52.14;100277.13;5022911;28;20038;-57
2024/01/08 06:25:49;;;;;;;2.33;1.02;;;;;;;19.03;52.12;100282.50;5024091;28;20061;-57
2024/01/08 06:28:16;;;;;;;1.65;0.82;;;;;;;19.03;52.26;100289.72;5021193;28;20049;-58
2024/01/08 06:30:44;;;;;;;1.95;1.00;;;;;;;19.01;52.24;100283.66;5021273;28;20064;-58
2024/01/08 06:33:11;;;;;;;1.48;0.60;;;;;;;19.03;52.30;100289.72;5025365;28;20042;-58
2024/01/08 06:35:41;;;;;;;1.42;0.70;;;;;;;19.02;52.27;100296.06;5024538;28;20071;-58
2024/01/08 06:38:08;;;;;;;1.92;1.00;;;;;;;19.02;52.30;100293.38;5020963;28;20046;-57
2024/01/08 06:40:36;;;;;;;1.70;0.90;;;;;;;19.02;52.43;100294.22;5021262;28;20045;-58
2024/01/08 06:43:04;;;;;;;1.60;0.60;;;;;;;19.01;52.27;100294.38;5025301;28;20480;-57
2024/01/08 06:45:31;;;;;;;2.35;1.40;;;;;;;19.02;52.27;100298.75;5023829;28;20049;-58
2024/01/08 06:47:58;;;;;;;2.35;0.93;;;;;;;19.01;52.21;100302.44;5021008;28;20071;-57
2024/01/08 06:50:26;;;;;;;2.00;1.05;;;;;;;19.01;52.20;100311.31;5020182;28;20058;-57
2024/01/08 06:52:53;;;;;;;1.73;0.80;;;;;;;19.01;52.32;100307.78;5025740;28;20053;-57
2024/01/08 06:55:22;;;;;;;1.58;0.75;;;;;;;19.02;52.53;100314.84;5023269;28;20064;-57
2024/01/08 06:57:52;;;;;;;1.55;0.70;;;;;;;19.01;52.17;100321.22;5015397;28;20511;-58
2024/01/08 07:00:20;;;;;;;1.80;0.90;;;;;;;19.01;52.39;100326.56;5024250;28;20053;-57
2024/01/08 07:02:47;;;;;;;2.00;1.00;;;;;;;19.00;52.37;100330.25;5027075;28;20037;-58
2024/01/08 07:05:16;;;;;;;1.92;1.05;;;;;;;19.00;52.37;100327.56;5021739;28;20125;-58
2024/01/08 07:07:44;;;;;;;1.83;0.98;;;;;;;18.99;52.28;100332.06;5019439;28;20049;-58
2024/01/08 07:10:11;;;;;;;3.22;1.20;;;;;;;19.01;52.60;100337.31;5029400;28;20492;-59
2024/01/08 07:12:39;;;;;;;2.85;0.98;;;;;;;19.01;52.64;100337.31;5025410;28;20399;-59
2024/01/08 07:15:06;;;;;;;1.65;0.95;;;;;;;19.01;52.40;100334.63;5020062;28;20053;-58
2024/01/08 07:17:34;;;;;;;3.00;1.00;;;;;;;19.01;52.35;100335.47;5020548;28;20053;-57
2024/01/08 07:20:02;;;;;;;2.65;1.00;;;;;;;19.02;52.42;100341.69;5021049;28;20061;-57
2024/01/08 07:22:30;;;;;;;3.55;1.00;;;;;;;19.01;52.50;100340.84;5027374;28;20399;-57
2024/01/08 07:24:57;;;;;;;2.20;1.15;;;;;;;19.01;52.28;100334.63;5020910;28;20054;-57
2024/01/08 07:27:25;;;;;;;2.28;1.00;;;;;;;19.01;52.42;100342.66;5020732;28;20439;-57
2024/01/08 07:29:54;;;;;;;1.83;0.90;;;;;;;19.00;52.30;100336.47;5020697;28;20054;-57
2024/01/08 07:32:21;;;;;;;1.80;0.90;;;;;;;19.02;52.29;100347.03;5036461;28;20067;-57
2024/01/08 07:34:49;;;;;;;3.95;1.00;;;;;;;19.01;52.30;100348.88;5021755;28;20054;-57
2024/01/08 07:37:16;;;;;;;1.85;0.80;;;;;;;19.01;52.23;100354.25;5025733;28;20053;-57
2024/01/08 07:39:43;;;;;;;3.20;1.17;;;;;;;19.01;52.00;100362.28;5025011;28;20049;-58
2024/01/08 07:42:11;;;;;;;1.40;0.80;;;;;;;19.00;52.11;100357.94;5027539;28;20044;-58
2024/01/08 07:44:38;;;;;;;2.13;1.23;;;;;;;19.01;52.23;100364.13;5021537;28;20046;-58
2024/01/08 07:47:05;;;;;;;2.33;1.02;;;;;;;18.99;52.13;100366.94;5021078;28;20083;-58
2024/01/08 07:49:33;;;;;;;2.45;1.08;;;;;;;18.99;52.15;100371.47;5020889;28;20050;-59
2024/01/08 07:52:00;;;;;;;2.58;1.13;;;;;;;18.98;52.03;100381.34;5027673;28;20075;-58
2024/01/08 07:54:35;;;;;;;3.10;2.10;;;;;;;18.89;51.29;100379.50;5026748;28;20050;-59
2024/01/08 07:57:03;;;;;;;3.42;2.80;;;;;;;18.71;50.40;100382.00;5020722;28;20051;-54
2024/01/08 07:59:35;;;;;;;3.97;2.80;;;;;;;18.56;49.91;100383.38;5025184;28;20416;-54
2024/01/08 08:02:04;;;;;;;3.78;2.97;;;;;;;18.42;49.97;100389.13;5025591;28;20049;-55
2024/01/08 08:04:31;;;;;;;3.55;2.38;;;;;;;18.32;49.82;100402.50;5020171;28;20045;-58
2024/01/08 08:06:59;;;;;;;3.83;2.53;;;;;;;18.29;49.88;100406.28;5027779;28;20046;-59
2024/01/08 08:09:28;;;;;;;5.20;2.63;;;;;;;18.32;50.01;100409.69;5027965;28;20408;-59
2024/01/08 08:11:55;;;;;;;3.80;2.45;;;;;;;18.35;50.03;100410.28;5028116;28;20052;-59
2024/01/08 08:14:23;;;;;;;4.85;2.55;;;;;;;18.39;50.06;100414.38;5023469;28;20042;-59
2024/01/08 08:16:50;;;;;;;3.20;2.55;;;;;;;18.44;49.71;100417.50;5023682;28;20046;-58
2024/01/08 08:19:17;;;;;;;4.50;2.42;;;;;;;18.48;49.53;100423.44;5026119;28;20053;-57
2024/01/08 08:21:46;;;;;;;4.18;3.03;;;;;;;18.51;49.31;100425.81;5027309;28;20045;-58
2024/01/08 08:24:17;;;;;;;3.55;2.72;;;;;;;18.53;49.02;100426.53;5023453;28;20038;-58
2024/01/08 08:26:44;;;;;;;3.70;2.90;;;;;;;18.56;49.27;100433.47;5029293;28;20053;-59
2024/01/08 08:29:12;;;;;;;2.78;1.90;;;;;;;18.57;49.53;100429.81;5027062;28;20053;-59
2024/01/08 08:31:42;;;;;;;5.05;2.30;;;;;;;18.61;49.84;100436.59;5029956;28;20064;-60
2024/01/08 08:34:09;;;;;;;4.20;2.13;;;;;;;18.64;50.02;100441.69;5022316;28;20045;-60
2024/01/08 08:36:41;;;;;;;2.70;1.52;;;;;;;18.66;50.06;100439.69;5023627;28;20042;-58
2024/01/08 08:39:09;;;;;;;3.17;2.03;;;;;;;18.67;50.08;100450.28;5028933;28;20049;-59
2024/01/08 08:41:37;;;;;;;3.42;1.70;;;;;;;18.70;49.98;100462.59;5024821;28;20053;-59
2024/01/08 08:44:04;;;;;;;3.13;1.67;;;;;;;18.71;49.94;100456.25;5023087;28;20041;-59
2024/01/08 08:46:32;;;;;;;3.78;1.60;;;;;;;18.73;50.10;100462.34;5023426;28;20049;-58
2024/01/08 08:48:59;;;;;;;2.28;1.50;;;;;;;18.75;50.05;100463.03;5028483;28;20495;-59
2024/01/08 08:51:26;;;;;;;3.60;1.52;;;;;;;18.74;50.00;100462.19;5024302;28;20045;-59
2024/01/08 08:53:54;;;;;;;4.00;1.88;;;;;;;18.76;49.94;100473.63;5030216;28;20069;-59
2024/01/08 08:56:22;;;;;;;2.00;1.15;;;;;;;18.76;49.91;100473.63;5023741;28;20057;-59
2024/01/08 08:58:49;;;;;;;3.63;1.45;;;;;;;18.76;50.15;100476.31;5028632;28;20056;-58
2024/01/08 09:01:17;;;;;;;3.20;1.40;;;;;;;18.77;49.95;100475.34;5023926;28;20044;-58
2024/01/08 09:03:45;;;;;;;4.30;1.73;;;;;;;18.79;50.11;100480.53;5023260;28;20053;-58
2024/01/08 09:06:12;;;;;;;2.70;1.23;;;;;;;18.78;50.16;100487.75;5022436;28;20050;-58
2024/01/08 09:08:40;;;;;;;2.58;1.33;;;;;;;18.78;49.91;100487.75;5028720;28;20049;-58
2024/01/08 09:11:08;;;;;;;2.10;1.40;;;;;;;18.80;49.95;100492.13;5023799;28;20049;-58
2024/01/08 09:13:35;;;;;;;3.00;1.70;;;;;;;18.78;50.18;100490.44;5022434;28;20046;-58
2024/01/08 09:16:03;;;;;;;3.28;1.55;;;;;;;18.80;50.12;100495.69;5022492;28;20054;-58
2024/01/08 09:18:30;;;;;;;1.83;1.08;;;;;;;18.80;50.08;100494.81;5030167;28;20045;-58
2024/01/08 09:20:57;;;;;;;2.60;1.40;;;;;;;18.80;50.10;100495.69;5023717;28;20072;-58
2024/01/08 09:23:25;;;;;;;3.60;1.50;;;;;;;18.80;50.16;100498.34;5028133;28;20048;-58
2024/01/08 09:25:52;;;;;;;2.85;1.10;;;;;;;18.80;50.00;100506.41;5026574;28;20397;-58
2024/01/08 09:28:20;;;;;;;4.13;1.52;;;;;;;18.81;50.05;100509.94;5028115;28;20515;-58
2024/01/08 09:30:50;;;;;;;2.83;1.45;;;;;;;18.79;50.15;100512.72;5023252;28;20419;-58
2024/01/08 09:33:18;;;;;;;2.50;1.45;;;;;;;18.83;49.99;100524.03;5022232;28;20057;-57
2024/01/08 09:35:45;;;;;;;2.30;1.25;;;;;;;18.83;49.95;100524.03;5022134;28;20045;-58
2024/01/08 09:38:13;;;;;;;3.08;1.52;;;;;;;18.82;50.20;100530.41;5028825;28;20048;-57
2024/01/08 09:40:42;;;;;;;2.70;1.50;;;;;;;18.82;50.19;100533.91;5022027;28;20057;-57
2024/01/08 09:43:12;;;;;;;2.00;1.33;;;;;;;18.82;50.12;100538.44;5021936;28;20049;-58
2024/01/08 09:46:03;;;;;;;2.88;1.30;;;;;;;18.81;50.09;100537.59;5022738;28;20045;-58
2024/01/08 09:48:32;;;;;;;2.67;1.23;;;;;;;18.82;50.07;100539.28;5034231;28;20519;-58
2024/01/08 09:51:00;;;;;;;2.25;1.35;;;;;;;18.81;50.31;100534.06;5021906;28;20060;-58
2024/01/08 09:53:29;;;;;;;5.57;1.42;;;;;;;18.81;50.02;100542.97;5021744;28;20046;-58
2024/01/08 09:55:58;;;;;;;3.13;1.20;;;;;;;18.82;50.31;100539.28;5028985;28;20542;-58
2024/01/08 09:58:26;;;;;;;2.08;1.10;;;;;;;18.81;50.12;100544.78;5020733;28;20527;-60
2024/01/08 10:00:54;;;;;;;2.53;1.13;;;;;;;18.82;50.11;100546.47;5021632;28;20065;-60
2024/01/08 10:03:21;;;;;;;2.15;1.27;;;;;;;18.80;50.00;100545.75;5021638;28;20046;-59
2024/01/08 10:05:50;;;;;;;2.20;1.45;;;;;;;18.81;50.08;100552.84;5028288;28;20048;-60
2024/01/08 10:08:18;;;;;;;2.35;1.02;;;;;;;18.80;49.92;100540.38;5022208;28;20082;-59
2024/01/08 10:10:46;;;;;;;3.00;1.70;;;;;;;18.81;50.16;100547.47;5021543;28;20046;-60
2024/01/08 10:13:14;;;;;;;2.35;1.50;;;;;;;18.80;50.05;100545.75;5022196;28;20053;-59
2024/01/08 10:15:46;;;;;;;2.28;1.20;;;;;;;18.80;50.16;100543.06;5028304;28;20052;-59
2024/01/08 10:18:16;;;;;;;2.25;1.40;;;;;;;18.81;50.20;100544.78;5021444;28;20082;-58
2024/01/08 10:20:47;;;;;;;2.10;1.15;;;;;;;18.80;50.07;100552.00;5021251;28;20053;-59
2024/01/08 10:23:16;;;;;;;2.50;1.67;;;;;;;18.80;50.03;100545.75;5025148;28;20054;-60
2024/01/08 10:25:51;;;;;;;2.90;1.70;;;;;;;18.80;49.98;100546.63;5025761;28;20049;-60
2024/01/08 10:28:19;;;;;;;2.67;1.50;;;;;;;18.78;50.00;100545.91;5020737;28;20118;-59
2024/01/08 10:30:47;;;;;;;2.50;1.50;;;;;;;18.78;50.23;100544.06;5020184;28;20046;-59
2024/01/08 10:33:18;;;;;;;2.50;1.27;;;;;;;18.79;50.31;100547.59;5027191;28;20575;-59
2024/01/08 10:35:46;;;;;;;2.70;1.25;;;;;;;18.79;50.01;100550.28;5021263;28;20045;-60
2024/01/08 10:38:14;;;;;;;2.13;1.35;;;;;;;18.80;50.16;100553.81;5021132;28;20473;-58
2024/01/08 10:40:42;;;;;;;2.20;1.20;;;;;;;18.78;50.27;100546.75;5020794;28;20459;-58
2024/01/08 10:43:09;;;;;;;2.45;1.27;;;;;;;18.78;50.25;100552.09;5027880;28;20049;-58
2024/01/08 10:45:37;;;;;;;2.20;1.13;;;;;;;18.78;50.23;100552.09;5020988;28;20048;-59
2024/01/08 10:48:11;;;;;;;2.00;1.02;;;;;;;18.78;50.27;100548.59;5020901;28;20492;-59
2024/01/08 10:50:39;;;;;;;2.15;1.17;;;;;;;18.77;50.19;100545.06;5022107;28;20057;-59
2024/01/08 10:53:13;;;;;;;2.20;1.13;;;;;;;18.78;50.30;100549.44;5026722;28;20053;-59
2024/01/08 10:55:41;;;;;;;1.95;1.08;;;;;;;18.78;50.11;100545.91;5020919;28;20046;-59
2024/01/08 10:58:20;;;;;;;2.08;1.15;;;;;;;18.76;50.19;100548.72;5020888;28;20049;-58
2024/01/08 11:00:48;;;;;;;2.65;1.30;;;;;;;18.76;50.27;100543.38;5026963;28;20052;-59
2024/01/08 11:03:15;;;;;;;2.20;1.33;;;;;;;18.77;50.34;100536.16;5020650;28;20109;-59
2024/01/08 11:05:53;;;;;;;2.17;1.27;;;;;;;18.77;50.21;100536.16;5020735;28;20042;-60
2024/01/08 11:08:21;;;;;;;2.17;1.30;;;;;;;18.75;50.21;100538.13;5022297;28;20042;-59
2024/01/08 11:10:50;;;;;;;2.55;1.67;;;;;;;18.77;50.05;100542.38;5026403;28;20041;-58
2024/01/08 11:13:17;;;;;;;2.50;1.48;;;;;;;18.77;50.08;100542.38;5020663;28;20065;-58
2024/01/08 11:15:46;;;;;;;2.63;1.55;;;;;;;18.77;50.32;100542.38;5015320;28;20053;-58
2024/01/08 11:18:28;;;;;;;2.53;1.33;;;;;;;18.77;50.28;100542.38;5022759;28;20115;-58
2024/01/08 11:21:00;;;;;;;2.35;0.95;;;;;;;18.77;50.21;100552.25;5020972;28;20061;-57
2024/01/08 11:23:40;;;;;;;2.92;1.45;;;;;;;18.77;50.21;100547.75;5024358;28;20040;-57
2024/01/08 11:26:14;;;;;;;2.95;1.50;;;;;;;18.77;50.36;100545.06;5023720;28;20105;-58
2024/01/08 11:28:41;;;;;;;;;;;;;;;18.76;50.22;100537.16;5024064;28;20058;-60